Time;durP1;ratioP1;P1;durP2;ratioP2;P2;SDS_P1;SDS_P2;PMS_P1;PMS_P2;Temp;Humidity;BMP_temperature;BMP_pressure;BME280_temperature;BME280_humidity;BME280_pressure;Samples;Min_cycle;Max_cycle;Signal;HPM_P1;HPM_P2
2022/10/03 00:00:32;;;;;;;17.75;3.55;;;11.50;99.90;;;;;;5050549;28;20037;-61
2022/10/03 00:03:25;;;;;;;12.15;2.72;;;11.50;99.90;;;;;;5051167;28;20041;-61
2022/10/03 00:06:01;;;;;;;16.40;3.25;;;11.50;99.90;;;;;;5050735;28;20446;-61
2022/10/03 00:08:51;;;;;;;16.02;3.15;;;11.40;99.90;;;;;;5050873;28;20174;-62
2022/10/03 00:11:35;;;;;;;18.48;3.40;;;11.40;99.90;;;;;;5051226;28;20044;-62
2022/10/03 00:14:25;;;;;;;15.68;3.05;;;11.30;99.90;;;;;;5049663;28;20354;-61
2022/10/03 00:17:20;;;;;;;17.48;3.50;;;11.30;99.90;;;;;;5050842;28;20131;-61
2022/10/03 00:19:51;;;;;;;15.13;3.53;;;11.30;99.90;;;;;;5050799;28;20080;-61
2022/10/03 00:22:36;;;;;;;15.63;4.03;;;11.40;99.90;;;;;;5050767;28;20041;-62
2022/10/03 00:25:18;;;;;;;16.65;3.78;;;11.30;99.90;;;;;;5051099;28;20040;-62
2022/10/03 00:28:06;;;;;;;15.10;3.53;;;11.30;99.90;;;;;;5051250;28;20219;-61
2022/10/03 00:31:12;;;;;;;11.75;3.13;;;11.30;99.90;;;;;;5050706;28;20094;-61
2022/10/03 00:33:54;;;;;;;13.05;3.45;;;11.20;99.90;;;;;;5035759;28;20056;-61
2022/10/03 00:36:42;;;;;;;14.70;3.47;;;11.20;99.90;;;;;;5051068;28;20048;-61
2022/10/03 00:40:10;;;;;;;13.48;3.05;;;11.10;99.90;;;;;;5039179;28;20049;-61
2022/10/03 00:43:12;;;;;;;14.57;3.58;;;11.10;99.90;;;;;;5028253;28;20042;-60
2022/10/03 00:45:39;;;;;;;11.45;2.50;;;11.10;99.90;;;;;;5027725;28;20048;-61
2022/10/03 00:48:40;;;;;;;12.55;3.15;;;11.10;99.90;;;;;;5047382;28;20041;-61
2022/10/03 00:51:17;;;;;;;12.93;2.63;;;11.00;99.90;;;;;;5050206;28;20431;-61
2022/10/03 00:53:57;;;;;;;12.05;2.67;;;10.90;99.90;;;;;;5050831;28;20041;-60
2022/10/03 00:57:03;;;;;;;15.52;3.25;;;10.90;99.90;;;;;;5050333;28;20072;-61
2022/10/03 00:59:51;;;;;;;12.02;2.90;;;10.90;99.90;;;;;;5050492;28;20055;-61
2022/10/03 01:02:27;;;;;;;13.32;2.65;;;10.90;99.90;;;;;;5039930;28;20413;-61
2022/10/03 01:05:46;;;;;;;14.57;2.92;;;11.00;99.90;;;;;;5051336;28;20048;-61
2022/10/03 01:08:43;;;;;;;14.38;2.80;;;11.00;99.90;;;;;;5015396;28;20397;-60
2022/10/03 01:11:35;;;;;;;15.98;3.38;;;11.00;99.90;;;;;;5054966;28;20404;-62
2022/10/03 01:14:18;;;;;;;14.50;2.72;;;11.00;99.90;;;;;;5041032;28;20466;-61
2022/10/03 01:16:57;;;;;;;15.48;3.05;;;11.10;99.90;;;;;;5054816;28;20128;-61
2022/10/03 01:20:00;;;;;;;12.80;2.60;;;11.10;99.90;;;;;;5054164;28;20728;-62
2022/10/03 01:22:30;;;;;;;15.13;2.83;;;11.10;99.90;;;;;;5041419;28;20033;-61
2022/10/03 01:25:10;;;;;;;13.20;2.78;;;11.00;99.90;;;;;;5054506;28;20072;-61
2022/10/03 01:30:50;;;;;;;12.80;3.05;;;11.10;99.90;;;;;;5053925;28;20087;-61
2022/10/03 01:33:57;;;;;;;14.93;2.70;;;11.10;99.90;;;;;;5053344;28;20052;-61
2022/10/03 01:36:39;;;;;;;13.48;2.88;;;11.10;99.90;;;;;;4992635;28;20153;-61
2022/10/03 01:39:25;;;;;;;13.52;2.80;;;11.10;99.90;;;;;;4991587;28;20144;-61
2022/10/03 01:42:02;;;;;;;16.38;3.05;;;11.10;99.90;;;;;;5031905;28;20414;-61
2022/10/03 01:45:01;;;;;;;10.68;2.45;;;11.10;99.90;;;;;;5052582;28;20087;-63
2022/10/03 01:47:50;;;;;;;16.73;2.80;;;11.10;99.90;;;;;;5054034;28;20033;-61
2022/10/03 01:50:41;;;;;;;12.73;2.70;;;11.10;99.90;;;;;;5053694;28;20504;-62
2022/10/03 01:53:32;;;;;;;15.35;2.47;;;11.10;99.90;;;;;;5053778;28;20082;-62
2022/10/03 01:56:14;;;;;;;15.43;2.60;;;11.00;99.90;;;;;;5043151;28;20114;-62
2022/10/03 01:59:09;;;;;;;12.80;2.50;;;11.00;99.90;;;;;;5040807;28;20051;-60
2022/10/03 02:02:00;;;;;;;11.15;3.05;;;11.00;99.90;;;;;;5053628;28;20033;-62
2022/10/03 02:04:47;;;;;;;15.65;2.92;;;11.00;99.90;;;;;;5052635;28;20539;-62
2022/10/03 02:07:35;;;;;;;11.10;3.22;;;11.00;99.90;;;;;;5041363;28;20067;-61
2022/10/03 02:10:32;;;;;;;12.88;2.63;;;11.00;99.90;;;;;;5053162;28;20044;-61
2022/10/03 02:13:24;;;;;;;17.27;2.97;;;11.00;99.90;;;;;;5053780;28;20136;-62
2022/10/03 02:16:10;;;;;;;14.07;2.78;;;11.00;99.90;;;;;;5052673;28;20099;-62
2022/10/03 02:18:48;;;;;;;24.23;3.85;;;11.00;99.90;;;;;;5051830;28;20544;-61
2022/10/03 02:21:26;;;;;;;21.40;3.22;;;11.00;99.90;;;;;;5053349;28;20067;-61
2022/10/03 02:24:13;;;;;;;20.20;3.40;;;11.00;99.90;;;;;;5052706;28;20724;-62
2022/10/03 02:27:04;;;;;;;17.00;3.38;;;10.90;99.90;;;;;;5053067;28;20044;-61
2022/10/03 02:29:38;;;;;;;16.90;3.15;;;10.90;99.90;;;;;;5051292;28;20429;-62
2022/10/03 02:32:20;;;;;;;16.30;3.60;;;10.90;99.90;;;;;;5052506;28;20102;-61
2022/10/03 02:35:06;;;;;;;17.73;3.20;;;10.80;99.90;;;;;;5043808;28;20037;-61
2022/10/03 02:37:40;;;;;;;14.73;3.30;;;10.80;99.90;;;;;;5052464;28;20063;-62
2022/10/03 02:40:12;;;;;;;15.48;2.90;;;10.80;99.90;;;;;;5052380;28;20041;-61
2022/10/03 02:43:15;;;;;;;18.13;2.88;;;10.70;99.90;;;;;;5052341;28;20470;-62
2022/10/03 02:46:15;;;;;;;13.43;2.65;;;10.70;99.90;;;;;;5052576;28;20045;-61
2022/10/03 02:48:55;;;;;;;14.05;2.65;;;10.60;99.90;;;;;;5041016;28;20115;-61
2022/10/03 02:52:05;;;;;;;10.30;2.65;;;10.60;99.90;;;;;;5053013;28;20047;-61
2022/10/03 02:54:49;;;;;;;13.15;2.20;;;10.60;99.90;;;;;;5052930;28;20190;-61
2022/10/03 02:57:40;;;;;;;9.80;2.25;;;10.50;99.90;;;;;;5053027;28;20051;-62
2022/10/03 03:00:48;;;;;;;9.32;2.42;;;10.50;99.90;;;;;;5052171;28;20358;-62
2022/10/03 03:03:13;;;;;;;7.10;2.00;;;10.40;99.90;;;;;;5051484;28;20420;-61
2022/10/03 03:06:28;;;;;;;5.55;1.92;;;10.40;99.90;;;;;;5050918;28;20501;-62
2022/10/03 03:09:24;;;;;;;10.55;2.20;;;10.30;99.90;;;;;;5038743;28;20517;-62
2022/10/03 03:12:15;;;;;;;11.75;2.35;;;10.30;99.90;;;;;;5052068;28;20125;-62
2022/10/03 03:14:53;;;;;;;6.70;1.73;;;10.20;99.90;;;;;;5052285;28;20045;-62
2022/10/03 03:17:46;;;;;;;7.35;1.98;;;10.10;99.90;;;;;;5039404;28;20061;-62
2022/10/03 03:20:37;;;;;;;6.10;1.63;;;10.00;99.90;;;;;;5051236;28;20137;-61
2022/10/03 03:23:35;;;;;;;9.80;1.92;;;10.00;99.90;;;;;;5052218;28;20029;-62
2022/10/03 03:26:15;;;;;;;8.05;1.80;;;10.00;99.90;;;;;;5052344;28;20052;-62
2022/10/03 03:28:49;;;;;;;6.82;1.92;;;10.00;99.90;;;;;;5051623;28;20045;-62
2022/10/03 03:31:17;;;;;;;;;;;10.10;99.90;;;;;;5052666;28;20029;-61
2022/10/03 03:33:43;;;;;;;8.32;2.13;;;10.00;99.90;;;;;;5052019;28;19991;-61
2022/10/03 03:36:24;;;;;;;10.50;2.22;;;10.00;99.90;;;;;;5052129;28;20412;-61
2022/10/03 03:39:09;;;;;;;10.90;2.30;;;10.00;99.90;;;;;;5051178;28;20381;-62
2022/10/03 03:42:15;;;;;;;7.63;2.20;;;9.90;99.90;;;;;;5051926;28;20049;-61
2022/10/03 03:44:58;;;;;;;9.43;2.45;;;9.90;99.90;;;;;;5051344;28;20434;-61
2022/10/03 03:48:00;;;;;;;9.95;2.38;;;10.00;99.90;;;;;;5052050;28;20151;-62
2022/10/03 03:50:44;;;;;;;12.13;2.55;;;9.90;99.90;;;;;;5051476;28;20532;-61
2022/10/03 03:53:38;;;;;;;12.82;2.80;;;10.00;99.90;;;;;;5051667;28;20029;-62
2022/10/03 03:56:23;;;;;;;11.57;3.10;;;10.00;99.90;;;;;;5051349;28;20068;-61
2022/10/03 03:59:19;;;;;;;12.55;3.10;;;10.10;99.90;;;;;;5039722;28;20461;-62
2022/10/03 04:02:05;;;;;;;11.73;2.67;;;10.00;99.90;;;;;;5051330;28;20531;-61
2022/10/03 04:04:44;;;;;;;12.90;2.15;;;9.90;99.90;;;;;;5051019;28;20095;-62
2022/10/03 04:07:49;;;;;;;7.93;1.95;;;9.90;99.90;;;;;;5036949;28;20060;-62
2022/10/03 04:10:41;;;;;;;8.63;1.95;;;9.90;99.90;;;;;;5051305;28;20067;-61
2022/10/03 04:13:17;;;;;;;7.05;2.20;;;9.80;99.90;;;;;;5051261;28;20056;-61
2022/10/03 04:16:01;;;;;;;6.55;2.00;;;9.80;99.90;;;;;;5048451;28;20078;-61
2022/10/03 04:18:58;;;;;;;9.85;2.63;;;9.70;99.90;;;;;;5051303;28;20048;-61
2022/10/03 04:21:39;;;;;;;4.35;1.63;;;9.70;99.90;;;;;;5051125;28;20490;-62
2022/10/03 04:24:31;;;;;;;7.75;2.20;;;9.60;99.90;;;;;;5052953;28;20373;-62
2022/10/03 04:27:03;;;;;;;5.97;1.95;;;9.60;99.90;;;;;;5051205;28;20052;-61
2022/10/03 04:29:40;;;;;;;5.78;2.00;;;9.60;99.90;;;;;;5050051;28;20033;-61
2022/10/03 04:32:21;;;;;;;9.25;1.95;;;9.50;99.90;;;;;;5051279;28;20037;-62
2022/10/03 04:35:04;;;;;;;7.70;2.05;;;9.50;99.90;;;;;;5043854;28;20458;-62
2022/10/03 04:38:10;;;;;;;9.57;2.03;;;9.40;99.90;;;;;;5050132;28;20048;-61
2022/10/03 04:40:54;;;;;;;5.57;1.67;;;9.40;99.90;;;;;;5042379;28;20059;-62
2022/10/03 04:43:42;;;;;;;8.07;2.17;;;9.30;99.90;;;;;;5050257;28;20134;-61
2022/10/03 04:46:24;;;;;;;5.43;1.80;;;9.30;99.90;;;;;;5049548;28;20037;-62
2022/10/03 04:49:04;;;;;;;6.60;2.15;;;9.30;99.90;;;;;;5047104;28;20071;-62
2022/10/03 04:51:45;;;;;;;5.35;1.67;;;9.30;99.90;;;;;;5049452;28;20421;-61
2022/10/03 04:54:30;;;;;;;7.05;1.77;;;9.20;99.90;;;;;;5047854;28;20466;-62
2022/10/03 04:57:02;;;;;;;7.28;2.55;;;9.20;99.90;;;;;;5049642;28;20060;-61
2022/10/03 04:59:58;;;;;;;5.53;1.95;;;9.10;99.90;;;;;;5049398;28;20418;-61
2022/10/03 05:02:39;;;;;;;4.95;2.20;;;9.00;99.90;;;;;;5050119;28;20044;-61
2022/10/03 05:05:39;;;;;;;6.03;1.92;;;9.10;99.90;;;;;;5049643;28;20037;-61
2022/10/03 05:08:37;;;;;;;8.50;2.22;;;9.10;99.90;;;;;;5049178;28;20121;-62
2022/10/03 05:11:14;;;;;;;4.72;1.73;;;9.10;99.90;;;;;;5045731;28;20092;-62
2022/10/03 05:14:04;;;;;;;5.70;1.92;;;9.10;99.90;;;;;;5050313;28;20525;-61
2022/10/03 05:16:53;;;;;;;8.05;2.20;;;9.10;99.90;;;;;;5044404;28;20665;-61
2022/10/03 05:20:13;;;;;;;8.40;2.10;;;9.10;99.90;;;;;;5046194;28;20069;-61
2022/10/03 05:23:15;;;;;;;6.50;2.35;;;9.10;99.90;;;;;;5026854;28;20040;-61
2022/10/03 05:25:59;;;;;;;8.57;2.47;;;9.10;99.90;;;;;;5050353;28;20041;-60
2022/10/03 05:28:49;;;;;;;5.00;2.20;;;9.10;99.90;;;;;;5050082;28;20033;-62
2022/10/03 05:31:39;;;;;;;6.05;2.00;;;9.10;99.90;;;;;;5050283;28;20079;-62
2022/10/03 05:34:43;;;;;;;7.65;2.38;;;9.10;99.90;;;;;;5050112;28;20048;-62
2022/10/03 05:37:30;;;;;;;5.68;2.13;;;9.10;99.90;;;;;;5011140;28;20481;-62
2022/10/03 05:40:14;;;;;;;6.13;2.13;;;9.10;99.90;;;;;;5042437;28;20068;-63
2022/10/03 05:42:48;;;;;;;7.50;3.60;;;9.10;99.90;;;;;;5047497;28;20049;-61
2022/10/03 05:45:13;;;;;;;;;;;9.10;99.90;;;;;;5045233;28;20465;-61
2022/10/03 05:47:54;;;;;;;8.23;2.90;;;9.10;99.90;;;;;;5049731;28;19916;-63
2022/10/03 05:50:32;;;;;;;6.55;2.50;;;9.10;99.90;;;;;;5048809;28;20446;-63
2022/10/03 05:53:30;;;;;;;5.57;2.30;;;9.10;99.90;;;;;;5050040;28;20052;-63
2022/10/03 05:56:36;;;;;;;6.28;2.60;;;9.10;99.90;;;;;;5052685;28;20040;-63
2022/10/03 05:59:36;;;;;;;6.68;2.22;;;9.00;99.90;;;;;;5051731;28;20037;-63
2022/10/03 06:02:20;;;;;;;4.15;1.95;;;9.00;99.90;;;;;;5050110;28;20333;-62
2022/10/03 06:05:04;;;;;;;10.05;2.40;;;9.10;99.90;;;;;;5051577;28;20462;-63
2022/10/03 06:07:53;;;;;;;5.82;2.55;;;9.10;99.90;;;;;;5051608;28;20476;-61
2022/10/03 06:11:04;;;;;;;7.60;2.08;;;9.20;99.90;;;;;;5051000;28;20044;-62
2022/10/03 06:14:13;;;;;;;8.07;2.13;;;9.20;99.90;;;;;;5038789;28;20048;-62
2022/10/03 06:16:50;;;;;;;6.93;2.28;;;9.60;99.90;;;;;;5049035;28;20051;-62
2022/10/03 06:19:39;;;;;;;7.05;2.10;;;9.90;99.90;;;;;;5048203;28;20052;-64
2022/10/03 06:22:07;;;;;;;7.07;2.38;;;10.10;99.90;;;;;;5048099;28;20048;-60
2022/10/03 06:25:12;;;;;;;7.10;2.47;;;10.30;99.90;;;;;;5051182;28;20036;-63
2022/10/03 06:28:25;;;;;;;6.05;2.80;;;10.30;99.90;;;;;;5031654;28;20087;-62
2022/10/03 06:31:10;;;;;;;5.97;2.60;;;10.30;99.90;;;;;;5052733;28;20465;-63
2022/10/03 06:34:03;;;;;;;9.30;2.97;;;10.20;99.90;;;;;;5053523;28;20080;-62
2022/10/03 06:36:43;;;;;;;6.82;2.60;;;10.40;99.90;;;;;;5039668;28;20056;-63
2022/10/03 06:39:44;;;;;;;7.10;2.30;;;10.40;99.90;;;;;;5051738;28;20053;-63
2022/10/03 06:42:25;;;;;;;8.45;2.67;;;10.50;99.90;;;;;;5052963;28;20458;-63
2022/10/03 06:45:28;;;;;;;12.18;3.17;;;10.60;99.90;;;;;;5052497;28;20373;-63
2022/10/03 06:48:11;;;;;;;8.35;2.92;;;10.70;99.90;;;;;;5052546;28;20124;-63
2022/10/03 06:51:01;;;;;;;11.03;2.93;;;10.80;99.90;;;;;;5051775;28;20048;-63
2022/10/03 06:53:51;;;;;;;9.60;3.40;;;10.90;99.90;;;;;;5039245;28;20036;-63
2022/10/03 06:56:34;;;;;;;6.47;2.55;;;11.00;99.90;;;;;;5068657;28;20395;-62
2022/10/03 06:59:27;;;;;;;6.88;2.88;;;11.10;99.90;;;;;;5051332;28;20076;-64
2022/10/03 07:02:10;;;;;;;9.63;2.90;;;11.10;99.90;;;;;;5052241;28;20480;-62
2022/10/03 07:05:13;;;;;;;12.88;3.60;;;11.20;99.90;;;;;;5046684;28;20048;-63
2022/10/03 07:07:44;;;;;;;11.18;3.50;;;11.30;99.90;;;;;;5032688;28;20119;-63
2022/10/03 07:10:32;;;;;;;9.93;3.40;;;11.50;99.90;;;;;;5052129;28;20476;-63
2022/10/03 07:13:14;;;;;;;8.55;2.70;;;11.50;99.90;;;;;;5052544;28;20036;-62
2022/10/03 07:16:07;;;;;;;13.43;3.15;;;11.60;99.90;;;;;;5048115;28;20033;-62
2022/10/03 07:19:10;;;;;;;9.23;3.47;;;11.60;99.90;;;;;;5048822;28;20064;-62
2022/10/03 07:21:54;;;;;;;7.40;3.85;;;11.70;99.90;;;;;;5045918;28;20064;-62
2022/10/03 07:24:58;;;;;;;15.77;4.88;;;11.80;99.90;;;;;;5063895;28;20045;-62
2022/10/03 07:28:00;;;;;;;13.15;3.63;;;11.80;99.90;;;;;;5067190;28;20079;-63
2022/10/03 07:30:55;;;;;;;10.30;3.53;;;11.90;99.90;;;;;;5051105;28;20551;-63
2022/10/03 07:33:29;;;;;;;13.40;5.72;;;12.00;99.90;;;;;;5050501;28;20405;-62
2022/10/03 07:39:00;;;;;;;13.00;5.18;;;12.20;99.90;;;;;;5051352;28;20382;-62
2022/10/03 07:41:51;;;;;;;11.50;4.22;;;12.30;99.90;;;;;;5048544;28;20040;-63
2022/10/03 07:44:39;;;;;;;15.18;5.97;;;12.30;99.90;;;;;;5050674;28;20139;-63
2022/10/03 07:48:00;;;;;;;13.20;5.72;;;12.40;99.90;;;;;;5050733;28;20056;-62
2022/10/03 07:50:49;;;;;;;12.60;5.57;;;12.50;99.90;;;;;;5050808;28;20045;-63
2022/10/03 07:53:48;;;;;;;11.85;5.65;;;12.60;99.90;;;;;;5050731;28;20044;-63
2022/10/03 07:56:41;;;;;;;11.93;4.35;;;12.80;99.90;;;;;;5049651;28;20327;-62
2022/10/03 07:59:22;;;;;;;10.90;3.78;;;12.90;99.90;;;;;;5048126;28;20139;-63
2022/10/03 08:02:04;;;;;;;11.52;3.95;;;12.90;99.90;;;;;;5049321;28;20047;-62
2022/10/03 08:05:04;;;;;;;11.13;3.30;;;13.00;99.90;;;;;;5049839;28;20086;-63
2022/10/03 08:08:17;;;;;;;21.98;4.05;;;13.20;99.90;;;;;;5040042;28;20174;-63
2022/10/03 08:11:09;;;;;;;16.48;3.30;;;13.30;99.90;;;;;;5039282;28;20427;-64
2022/10/03 08:13:57;;;;;;;19.88;3.92;;;13.40;99.90;;;;;;5051662;28;20061;-67
2022/10/03 08:16:48;;;;;;;19.10;4.13;;;13.50;99.90;;;;;;5048990;28;20552;-64
2022/10/03 08:19:29;;;;;;;11.63;2.50;;;13.70;99.90;;;;;;5047030;28;20173;-63
2022/10/03 08:22:03;;;;;;;12.55;2.92;;;13.80;99.90;;;;;;5049898;28;20061;-62
2022/10/03 08:24:59;;;;;;;10.23;3.78;;;13.90;99.90;;;;;;5049872;28;20037;-62
2022/10/03 08:27:37;;;;;;;10.90;2.58;;;14.00;99.90;;;;;;5049954;28;20037;-63
2022/10/03 08:30:47;;;;;;;11.82;2.25;;;14.10;99.90;;;;;;5048913;28;20044;-62
2022/10/03 08:33:27;;;;;;;9.32;2.55;;;14.10;99.90;;;;;;5036696;28;20057;-62
2022/10/03 08:36:07;;;;;;;10.23;2.28;;;14.10;99.90;;;;;;5051254;28;20041;-62
2022/10/03 08:38:53;;;;;;;10.50;2.45;;;14.30;99.90;;;;;;5040529;28;20049;-62
2022/10/03 08:41:56;;;;;;;7.22;2.15;;;14.30;99.90;;;;;;5051501;28;20088;-62
2022/10/03 08:44:28;;;;;;;8.68;2.35;;;14.40;99.90;;;;;;5050826;28;20049;-62
2022/10/03 08:47:08;;;;;;;9.07;2.08;;;14.50;99.90;;;;;;5051289;28;20076;-62
2022/10/03 08:49:50;;;;;;;12.20;2.22;;;14.60;99.90;;;;;;5050218;28;20375;-62
2022/10/03 08:53:00;;;;;;;10.00;2.25;;;14.80;99.90;;;;;;5051434;28;20068;-62
2022/10/03 08:55:41;;;;;;;11.00;2.38;;;14.90;99.90;;;;;;5044091;28;20048;-62
2022/10/03 08:58:27;;;;;;;12.68;2.80;;;15.00;99.90;;;;;;5050928;28;20041;-62
2022/10/03 09:01:23;;;;;;;12.80;2.92;;;15.10;99.90;;;;;;5051203;28;20792;-62
2022/10/03 09:04:03;;;;;;;12.77;3.15;;;15.20;99.90;;;;;;5050843;28;20049;-62
2022/10/03 09:07:09;;;;;;;11.77;2.60;;;15.20;99.90;;;;;;5046952;28;20041;-63
2022/10/03 09:10:12;;;;;;;11.88;2.40;;;15.30;99.90;;;;;;5050887;28;20380;-62
2022/10/03 09:13:05;;;;;;;8.80;1.98;;;15.40;99.90;;;;;;5041277;28;20071;-63
2022/10/03 09:16:08;;;;;;;10.93;2.42;;;15.40;99.90;;;;;;5050838;28;20629;-62
2022/10/03 09:18:37;;;;;;;8.73;2.15;;;15.40;99.90;;;;;;5050827;28;20041;-62
2022/10/03 09:21:27;;;;;;;7.88;2.03;;;15.50;99.90;;;;;;5042134;28;20041;-62
2022/10/03 09:24:14;;;;;;;8.70;2.22;;;15.60;99.90;;;;;;5049751;28;20041;-62
2022/10/03 09:27:17;;;;;;;6.93;2.00;;;15.70;99.90;;;;;;5047196;28;20032;-63
2022/10/03 09:30:04;;;;;;;7.50;1.95;;;15.70;99.90;;;;;;5042119;28;20045;-62
2022/10/03 09:32:59;;;;;;;11.82;2.10;;;15.80;99.90;;;;;;5055211;28;20327;-63
2022/10/03 09:35:27;;;;;;;11.38;2.08;;;15.90;99.90;;;;;;5047398;28;20102;-62
2022/10/03 09:38:10;;;;;;;7.70;1.90;;;16.00;99.90;;;;;;5054784;28;20060;-62
2022/10/03 09:41:14;;;;;;;9.00;2.00;;;16.10;99.90;;;;;;5053503;28;20473;-62
2022/10/03 09:44:04;;;;;;;7.88;2.10;;;16.20;99.90;;;;;;5070098;28;20049;-63
2022/10/03 09:49:51;;;;;;;6.30;2.05;;;16.20;99.90;;;;;;5054315;28;20063;-63
2022/10/03 09:52:33;;;;;;;11.35;2.80;;;16.20;99.90;;;;;;5054641;28;20067;-62
2022/10/03 09:55:26;;;;;;;9.50;1.88;;;16.40;99.90;;;;;;5054225;28;20441;-62
2022/10/03 09:58:11;;;;;;;7.43;2.10;;;16.40;99.90;;;;;;5054410;28;20209;-62
2022/10/03 10:00:36;;;;;;;;;;;16.50;99.90;;;;;;5054402;28;20346;-62
2022/10/03 10:03:40;;;;;;;6.45;1.73;;;16.50;99.90;;;;;;5054485;28;19927;-62
2022/10/03 10:06:25;;;;;;;10.25;2.10;;;16.60;99.90;;;;;;5053952;28;20597;-62
2022/10/03 10:09:29;;;;;;;6.60;1.65;;;16.70;99.90;;;;;;5045214;28;20049;-63
2022/10/03 10:12:44;;;;;;;8.07;2.20;;;16.90;99.90;;;;;;5054406;28;20067;-62
2022/10/03 10:15:20;;;;;;;8.05;2.13;;;17.00;99.90;;;;;;5053976;28;20076;-62
2022/10/03 10:18:18;;;;;;;9.40;1.92;;;17.00;99.90;;;;;;5054353;28;20028;-62
2022/10/03 10:21:05;;;;;;;10.90;2.05;;;17.00;99.90;;;;;;5039578;28;20061;-63
2022/10/03 10:23:54;;;;;;;9.02;2.17;;;17.00;99.90;;;;;;5052837;28;20347;-62
2022/10/03 10:26:58;;;;;;;9.18;2.10;;;17.00;99.90;;;;;;5053630;28;20049;-62
2022/10/03 10:29:39;;;;;;;6.20;2.00;;;16.90;99.90;;;;;;5051234;28;20350;-63
2022/10/03 10:32:22;;;;;;;7.32;2.05;;;16.90;99.90;;;;;;5051187;28;20275;-62
2022/10/03 10:35:25;;;;;;;7.18;2.28;;;16.90;99.90;;;;;;5048797;28;20041;-62
2022/10/03 10:38:24;;;;;;;10.18;2.25;;;16.90;99.90;;;;;;5067138;28;20558;-62
2022/10/03 10:41:35;;;;;;;8.35;1.90;;;16.90;99.90;;;;;;5049876;28;20059;-62
2022/10/03 10:44:38;;;;;;;9.48;2.80;;;17.00;99.90;;;;;;5052256;28;20041;-62
2022/10/03 10:47:39;;;;;;;5.32;1.95;;;17.00;99.90;;;;;;5052059;28;20076;-63
2022/10/03 10:50:30;;;;;;;7.03;1.77;;;17.00;99.90;;;;;;5051697;28;20049;-62
2022/10/03 10:53:29;;;;;;;12.18;2.33;;;17.10;99.90;;;;;;5051848;28;20299;-63
2022/10/03 10:56:17;;;;;;;9.02;2.28;;;17.10;99.90;;;;;;5049200;28;20055;-62
2022/10/03 10:58:49;;;;;;;8.15;2.20;;;17.10;99.90;;;;;;5051889;28;20072;-62
2022/10/03 11:01:50;;;;;;;8.15;2.00;;;17.20;99.90;;;;;;5051472;28;20041;-62
2022/10/03 11:04:33;;;;;;;4.85;1.80;;;17.30;99.90;;;;;;5050743;28;20072;-63
2022/10/03 11:07:11;;;;;;;6.05;1.58;;;17.30;99.90;;;;;;5050891;28;20422;-62
2022/10/03 11:10:09;;;;;;;6.13;1.77;;;17.40;99.90;;;;;;5052188;28;20041;-64
2022/10/03 11:12:57;;;;;;;6.63;1.52;;;17.40;99.90;;;;;;5049689;28;20376;-64
2022/10/03 11:15:59;;;;;;;7.80;1.77;;;17.50;99.90;;;;;;5052138;28;20052;-62
2022/10/03 11:19:12;;;;;;;6.13;1.52;;;17.60;99.90;;;;;;5050796;28;20045;-63
2022/10/03 11:21:52;;;;;;;6.70;2.03;;;17.70;99.90;;;;;;5050137;28;20179;-63
2022/10/03 11:24:45;;;;;;;5.63;1.65;;;17.60;99.90;;;;;;5049301;28;20442;-63
2022/10/03 11:27:20;;;;;;;7.45;1.90;;;17.60;99.90;;;;;;5050461;28;20128;-63
2022/10/03 11:30:28;;;;;;;6.03;1.55;;;17.40;99.90;;;;;;5050243;28;20529;-63
2022/10/03 11:33:28;;;;;;;10.50;1.70;;;17.40;99.90;;;;;;5025479;28;20470;-63
2022/10/03 11:36:22;;;;;;;6.88;1.67;;;17.50;99.90;;;;;;5040555;28;20045;-62
2022/10/03 11:39:30;;;;;;;9.70;2.40;;;17.60;99.90;;;;;;5043616;28;20342;-62
2022/10/03 11:42:21;;;;;;;5.47;1.33;;;17.60;99.90;;;;;;5047746;28;20053;-62
2022/10/03 11:45:04;;;;;;;6.10;1.45;;;17.50;99.90;;;;;;5051513;28;20041;-63
2022/10/03 11:47:48;;;;;;;8.45;2.05;;;17.50;99.90;;;;;;5051744;28;20040;-62
2022/10/03 11:50:51;;;;;;;6.68;1.65;;;17.50;99.90;;;;;;5045944;28;20048;-62
2022/10/03 11:53:29;;;;;;;5.13;1.40;;;17.60;99.90;;;;;;5049589;28;20059;-62
2022/10/03 11:56:13;;;;;;;8.82;2.22;;;17.60;99.90;;;;;;5051632;28;20091;-62
2022/10/03 11:59:07;;;;;;;6.88;1.40;;;17.60;99.90;;;;;;5051554;28;20068;-63
2022/10/03 12:02:04;;;;;;;9.52;1.83;;;17.70;99.90;;;;;;5048367;28;20399;-63
2022/10/03 12:05:09;;;;;;;8.23;1.70;;;17.70;99.90;;;;;;5051537;28;20120;-63
2022/10/03 12:11:00;;;;;;;7.07;1.85;;;17.80;99.90;;;;;;5051515;28;20032;-63
2022/10/03 12:13:44;;;;;;;6.18;1.67;;;18.00;99.90;;;;;;5050469;28;20045;-62
2022/10/03 12:16:26;;;;;;;6.10;1.73;;;18.00;99.90;;;;;;5051518;28;20098;-63
2022/10/03 12:19:00;;;;;;;12.85;4.72;;;18.20;99.90;;;;;;5051083;28;20099;-63
2022/10/03 12:21:36;;;;;;;9.05;1.83;;;18.20;99.90;;;;;;5051399;28;20477;-62
2022/10/03 12:24:25;;;;;;;9.30;1.90;;;18.30;99.90;;;;;;5051075;28;20036;-63
2022/10/03 12:27:14;;;;;;;7.35;1.67;;;18.40;99.90;;;;;;5046252;28;20032;-63
2022/10/03 12:29:45;;;;;;;4.47;1.33;;;18.40;99.90;;;;;;5036780;28;20090;-63
2022/10/03 12:32:30;;;;;;;7.75;1.77;;;18.40;99.90;;;;;;5050939;28;20655;-62
2022/10/03 12:35:28;;;;;;;5.05;1.48;;;18.60;99.90;;;;;;5050496;28;20048;-63
2022/10/03 12:38:24;;;;;;;6.00;1.27;;;18.60;99.90;;;;;;5047240;28;20048;-63
2022/10/03 12:41:00;;;;;;;6.15;1.60;;;18.60;99.90;;;;;;5050733;28;20041;-63
2022/10/03 12:44:04;;;;;;;8.60;1.73;;;18.60;99.90;;;;;;5050756;28;20116;-63
2022/10/03 12:46:40;;;;;;;6.40;1.40;;;18.60;99.90;;;;;;5045917;28;20422;-63
2022/10/03 12:49:14;;;;;;;7.95;2.70;;;18.50;99.90;;;;;;5049965;28;20473;-63
2022/10/03 12:52:01;;;;;;;8.13;2.13;;;18.50;99.90;;;;;;5051197;28;20029;-62
2022/10/03 12:54:58;;;;;;;4.60;1.40;;;18.60;99.90;;;;;;5050403;28;20474;-63
2022/10/03 12:57:50;;;;;;;7.50;1.50;;;18.60;99.90;;;;;;5041097;28;20036;-63
2022/10/03 13:00:19;;;;;;;5.97;1.50;;;18.40;99.90;;;;;;5047458;28;20485;-63
2022/10/03 13:03:06;;;;;;;4.68;1.55;;;18.30;99.90;;;;;;5053372;28;20048;-63
2022/10/03 13:05:43;;;;;;;5.65;1.50;;;18.40;99.90;;;;;;5054456;28;20095;-63
2022/10/03 13:08:36;;;;;;;4.05;1.10;;;18.20;99.90;;;;;;5053932;28;20045;-63
2022/10/03 13:11:24;;;;;;;9.85;1.85;;;18.20;99.90;;;;;;5045248;28;20070;-63
2022/10/03 13:14:17;;;;;;;9.02;1.60;;;18.00;99.90;;;;;;5053961;28;20520;-62
2022/10/03 13:17:18;;;;;;;7.97;1.98;;;18.00;99.90;;;;;;5050745;28;20080;-62
2022/10/03 13:20:00;;;;;;;9.73;2.17;;;18.00;99.90;;;;;;5054645;28;20127;-63
2022/10/03 13:22:51;;;;;;;6.70;1.60;;;18.10;99.90;;;;;;5051842;28;20066;-63
2022/10/03 13:25:36;;;;;;;7.15;1.85;;;18.20;99.90;;;;;;5054343;28;20045;-62
2022/10/03 13:28:10;;;;;;;5.95;1.55;;;18.20;99.90;;;;;;5044989;28;20072;-62
2022/10/03 13:30:48;;;;;;;5.82;1.67;;;18.10;99.90;;;;;;5055082;28;20095;-63
2022/10/03 13:33:18;;;;;;;4.43;1.50;;;18.20;99.90;;;;;;5052987;28;20044;-63
2022/10/03 13:36:02;;;;;;;5.43;1.52;;;18.20;99.90;;;;;;5053294;28;20511;-63
2022/10/03 13:38:57;;;;;;;3.85;1.35;;;18.20;99.90;;;;;;5047420;28;20226;-62
2022/10/03 13:41:38;;;;;;;5.95;1.55;;;18.00;99.90;;;;;;5055919;28;20380;-63
2022/10/03 13:44:21;;;;;;;8.57;1.98;;;17.90;99.90;;;;;;5056075;28;20037;-63
2022/10/03 13:47:33;;;;;;;5.30;1.30;;;17.90;99.90;;;;;;5042493;28;20112;-63
2022/10/03 13:50:14;;;;;;;5.40;1.50;;;17.90;99.90;;;;;;5040368;28;20068;-63
2022/10/03 13:52:59;;;;;;;5.05;1.25;;;17.90;99.90;;;;;;5054251;28;20045;-63
2022/10/03 13:55:46;;;;;;;5.40;1.63;;;18.00;99.90;;;;;;5045635;28;20048;-63
2022/10/03 13:58:53;;;;;;;7.57;1.60;;;17.90;99.90;;;;;;5054738;28;20359;-63
2022/10/03 14:01:41;;;;;;;6.85;1.48;;;17.80;99.90;;;;;;5055855;28;20068;-62
2022/10/03 14:04:33;;;;;;;11.13;1.50;;;17.80;99.90;;;;;;5055824;28;20045;-63
2022/10/03 14:07:03;;;;;;;4.53;1.33;;;17.80;99.90;;;;;;5053706;28;20044;-63
2022/10/03 14:09:59;;;;;;;5.95;1.63;;;17.80;99.90;;;;;;5054227;28;20045;-62
2022/10/03 14:12:43;;;;;;;6.35;1.58;;;17.80;99.90;;;;;;5041442;28;20103;-63
2022/10/03 14:15:21;;;;;;;6.85;1.88;;;17.90;99.90;;;;;;5054741;28;20120;-63
2022/10/03 14:18:09;;;;;;;6.30;1.25;;;17.90;99.90;;;;;;5050427;28;20120;-62
2022/10/03 14:20:59;;;;;;;4.63;1.30;;;17.80;99.90;;;;;;5053819;28;20049;-63
2022/10/03 14:23:39;;;;;;;5.85;1.10;;;17.80;99.90;;;;;;5054302;28;20475;-62
2022/10/03 14:26:20;;;;;;;5.50;1.55;;;17.80;99.90;;;;;;5051777;28;20079;-63
2022/10/03 14:29:01;;;;;;;4.43;1.35;;;17.80;99.90;;;;;;5053914;28;20469;-63
2022/10/03 14:31:39;;;;;;;4.13;1.40;;;17.80;99.90;;;;;;5041669;28;20404;-63
2022/10/03 14:34:32;;;;;;;3.55;1.30;;;17.80;99.90;;;;;;5037523;28;20131;-64
2022/10/03 14:37:17;;;;;;;5.97;1.50;;;17.80;99.90;;;;;;5027201;28;20080;-63
2022/10/03 14:40:00;;;;;;;5.28;1.30;;;17.80;99.90;;;;;;5051859;28;20415;-63
2022/10/03 14:42:39;;;;;;;6.03;1.35;;;17.80;99.90;;;;;;5052716;28;20041;-62
2022/10/03 14:45:12;;;;;;;5.35;1.55;;;17.80;99.90;;;;;;5040896;28;20102;-62
2022/10/03 14:47:41;;;;;;;6.68;1.65;;;17.80;99.90;;;;;;5054528;28;20475;-62